sensor_id;sensor_type;location;lat;lon;timestamp;temperature;humidity
3756;DHT22;1893;52.526;13.360;2023-02-15T00:00:16;3.60;99.90
3756;DHT22;1893;52.526;13.360;2023-02-15T00:02:41;3.70;99.90
3756;DHT22;1893;52.526;13.360;2023-02-15T00:05:08;3.60;99.90
3756;DHT22;1893;52.526;13.360;2023-02-15T00:07:34;3.60;99.90
3756;DHT22;1893;52.526;13.360;2023-02-15T00:09:59;3.60;99.90
3756;DHT22;1893;52.526;13.360;2023-02-15T00:12:25;3.50;99.90
3756;DHT22;1893;52.526;13.360;2023-02-15T00:14:51;3.50;99.90
3756;DHT22;1893;52.526;13.360;2023-02-15T00:17:16;3.50;99.90
3756;DHT22;1893;52.526;13.360;2023-02-15T00:19:42;3.40;99.90
3756;DHT22;1893;52.526;13.360;2023-02-15T00:22:08;3.40;99.90
3756;DHT22;1893;52.526;13.360;2023-02-15T00:24:34;3.40;99.90
3756;DHT22;1893;52.526;13.360;2023-02-15T00:27:00;3.50;99.90
3756;DHT22;1893;52.526;13.360;2023-02-15T00:29:25;3.50;99.90
3756;DHT22;1893;52.526;13.360;2023-02-15T00:31:51;3.50;99.90
3756;DHT22;1893;52.526;13.360;2023-02-15T00:34:23;3.40;99.90
3756;DHT22;1893;52.526;13.360;2023-02-15T00:36:49;3.40;99.90
3756;DHT22;1893;52.526;13.360;2023-02-15T00:39:16;3.30;99.90
3756;DHT22;1893;52.526;13.360;2023-02-15T00:41:41;3.30;99.90
3756;DHT22;1893;52.526;13.360;2023-02-15T00:44:08;3.30;99.90
3756;DHT22;1893;52.526;13.360;2023-02-15T00:46:34;3.30;99.90
3756;DHT22;1893;52.526;13.360;2023-02-15T00:49:00;3.30;99.90
3756;DHT22;1893;52.526;13.360;2023-02-15T00:51:26;3.30;99.90
3756;DHT22;1893;52.526;13.360;2023-02-15T00:53:52;3.20;99.90
3756;DHT22;1893;52.526;13.360;2023-02-15T00:56:18;3.10;99.90
3756;DHT22;1893;52.526;13.360;2023-02-15T00:58:43;3.10;99.90
3756;DHT22;1893;52.526;13.360;2023-02-15T01:01:12;3.10;99.90
3756;DHT22;1893;52.526;13.360;2023-02-15T01:03:38;3.00;99.90
3756;DHT22;1893;52.526;13.360;2023-02-15T01:06:04;3.10;99.90
3756;DHT22;1893;52.526;13.360;2023-02-15T01:08:30;2.90;99.90
3756;DHT22;1893;52.526;13.360;2023-02-15T01:10:57;2.90;99.90
3756;DHT22;1893;52.526;13.360;2023-02-15T01:13:27;2.90;99.90
3756;DHT22;1893;52.526;13.360;2023-02-15T01:15:54;2.90;99.90
3756;DHT22;1893;52.526;13.360;2023-02-15T01:18:20;2.90;99.90
3756;DHT22;1893;52.526;13.360;2023-02-15T01:20:46;2.80;99.90
3756;DHT22;1893;52.526;13.360;2023-02-15T01:23:13;2.80;99.90
3756;DHT22;1893;52.526;13.360;2023-02-15T01:25:38;2.90;99.90
3756;DHT22;1893;52.526;13.360;2023-02-15T01:28:04;2.90;99.90
3756;DHT22;1893;52.526;13.360;2023-02-15T01:30:30;3.00;99.90
3756;DHT22;1893;52.526;13.360;2023-02-15T01:32:56;3.00;99.90
3756;DHT22;1893;52.526;13.360;2023-02-15T01:35:22;3.00;99.90
3756;DHT22;1893;52.526;13.360;2023-02-15T01:37:48;2.90;99.90
3756;DHT22;1893;52.526;13.360;2023-02-15T01:40:16;2.90;99.90
3756;DHT22;1893;52.526;13.360;2023-02-15T01:42:42;2.90;99.90
3756;DHT22;1893;52.526;13.360;2023-02-15T01:45:40;2.80;99.90
3756;DHT22;1893;52.526;13.360;2023-02-15T01:48:21;2.90;99.90
3756;DHT22;1893;52.526;13.360;2023-02-15T01:50:59;2.60;99.90
3756;DHT22;1893;52.526;13.360;2023-02-15T01:53:37;2.70;99.90
3756;DHT22;1893;52.526;13.360;2023-02-15T01:56:26;2.60;99.90
3756;DHT22;1893;52.526;13.360;2023-02-15T01:58:54;2.60;99.90
3756;DHT22;1893;52.526;13.360;2023-02-15T02:01:24;2.60;99.90
3756;DHT22;1893;52.526;13.360;2023-02-15T02:03:58;2.50;99.90
3756;DHT22;1893;52.526;13.360;2023-02-15T02:06:26;2.50;99.90
3756;DHT22;1893;52.526;13.360;2023-02-15T02:08:53;2.50;99.90
3756;DHT22;1893;52.526;13.360;2023-02-15T02:11:19;2.50;99.90
3756;DHT22;1893;52.526;13.360;2023-02-15T02:13:45;2.60;99.90
3756;DHT22;1893;52.526;13.360;2023-02-15T02:16:19;2.50;99.90
3756;DHT22;1893;52.526;13.360;2023-02-15T02:33:11;2.80;99.90
3756;DHT22;1893;52.526;13.360;2023-02-15T02:47:02;2.60;99.90
3756;DHT22;1893;52.526;13.360;2023-02-15T02:52:01;2.50;99.90
3756;DHT22;1893;52.526;13.360;2023-02-15T02:54:28;2.50;99.90
3756;DHT22;1893;52.526;13.360;2023-02-15T02:56:55;2.50;99.90
3756;DHT22;1893;52.526;13.360;2023-02-15T02:59:32;2.50;99.90
3756;DHT22;1893;52.526;13.360;2023-02-15T03:02:13;2.50;99.90
3756;DHT22;1893;52.526;13.360;2023-02-15T03:04:45;2.60;99.90
3756;DHT22;1893;52.526;13.360;2023-02-15T03:07:15;2.80;99.90
3756;DHT22;1893;52.526;13.360;2023-02-15T03:09:49;2.60;99.90
3756;DHT22;1893;52.526;13.360;2023-02-15T03:12:22;2.80;99.90
3756;DHT22;1893;52.526;13.360;2023-02-15T03:14:55;2.60;99.90
3756;DHT22;1893;52.526;13.360;2023-02-15T03:17:23;2.60;99.90
3756;DHT22;1893;52.526;13.360;2023-02-15T03:19:52;2.60;99.90
3756;DHT22;1893;52.526;13.360;2023-02-15T03:22:28;2.60;99.90
3756;DHT22;1893;52.526;13.360;2023-02-15T03:25:06;2.60;99.90
3756;DHT22;1893;52.526;13.360;2023-02-15T03:27:43;2.60;99.90
3756;DHT22;1893;52.526;13.360;2023-02-15T03:30:11;2.50;99.90
3756;DHT22;1893;52.526;13.360;2023-02-15T03:32:39;2.40;99.90
3756;DHT22;1893;52.526;13.360;2023-02-15T03:35:07;2.60;99.90
3756;DHT22;1893;52.526;13.360;2023-02-15T03:37:35;2.50;99.90
3756;DHT22;1893;52.526;13.360;2023-02-15T03:40:03;2.40;99.90
3756;DHT22;1893;52.526;13.360;2023-02-15T03:42:56;2.50;99.90
3756;DHT22;1893;52.526;13.360;2023-02-15T03:45:26;2.50;99.90
3756;DHT22;1893;52.526;13.360;2023-02-15T03:47:55;2.40;99.90
3756;DHT22;1893;52.526;13.360;2023-02-15T03:50:26;2.50;99.90
3756;DHT22;1893;52.526;13.360;2023-02-15T03:53:15;2.30;99.90
3756;DHT22;1893;52.526;13.360;2023-02-15T03:55:42;2.30;99.90
3756;DHT22;1893;52.526;13.360;2023-02-15T03:58:11;2.30;99.90
3756;DHT22;1893;52.526;13.360;2023-02-15T04:01:05;2.30;99.90
3756;DHT22;1893;52.526;13.360;2023-02-15T04:03:59;2.40;99.90
3756;DHT22;1893;52.526;13.360;2023-02-15T04:06:26;2.30;99.90
3756;DHT22;1893;52.526;13.360;2023-02-15T04:08:52;2.30;99.90
3756;DHT22;1893;52.526;13.360;2023-02-15T04:11:35;2.20;99.90
3756;DHT22;1893;52.526;13.360;2023-02-15T04:14:01;2.10;99.90
3756;DHT22;1893;52.526;13.360;2023-02-15T04:16:46;2.00;99.90
3756;DHT22;1893;52.526;13.360;2023-02-15T04:19:12;2.00;99.90
3756;DHT22;1893;52.526;13.360;2023-02-15T04:21:56;1.90;99.90
3756;DHT22;1893;52.526;13.360;2023-02-15T04:24:40;1.80;99.90
3756;DHT22;1893;52.526;13.360;2023-02-15T04:27:24;1.80;99.90
3756;DHT22;1893;52.526;13.360;2023-02-15T04:29:50;1.70;99.90
3756;DHT22;1893;52.526;13.360;2023-02-15T04:32:15;1.60;99.90
3756;DHT22;1893;52.526;13.360;2023-02-15T04:34:41;1.60;99.90
3756;DHT22;1893;52.526;13.360;2023-02-15T04:37:07;1.50;99.90
3756;DHT22;1893;52.526;13.360;2023-02-15T04:39:32;1.50;99.90
3756;DHT22;1893;52.526;13.360;2023-02-15T04:41:58;1.40;99.90
3756;DHT22;1893;52.526;13.360;2023-02-15T04:44:23;1.40;99.90
3756;DHT22;1893;52.526;13.360;2023-02-15T04:46:49;1.30;99.90
3756;DHT22;1893;52.526;13.360;2023-02-15T04:49:15;1.40;99.90
3756;DHT22;1893;52.526;13.360;2023-02-15T04:51:40;1.30;99.90
3756;DHT22;1893;52.526;13.360;2023-02-15T04:54:06;1.30;99.90
3756;DHT22;1893;52.526;13.360;2023-02-15T04:56:32;1.30;99.90
3756;DHT22;1893;52.526;13.360;2023-02-15T04:58:59;1.20;99.90
3756;DHT22;1893;52.526;13.360;2023-02-15T05:01:24;1.20;99.90
3756;DHT22;1893;52.526;13.360;2023-02-15T05:03:50;1.20;99.90
3756;DHT22;1893;52.526;13.360;2023-02-15T05:06:16;1.20;99.90
3756;DHT22;1893;52.526;13.360;2023-02-15T05:08:41;1.20;99.90
3756;DHT22;1893;52.526;13.360;2023-02-15T05:11:07;1.10;99.90
3756;DHT22;1893;52.526;13.360;2023-02-15T05:13:33;1.10;99.90
3756;DHT22;1893;52.526;13.360;2023-02-15T05:15:58;1.10;99.90
3756;DHT22;1893;52.526;13.360;2023-02-15T05:18:24;1.10;99.90
3756;DHT22;1893;52.526;13.360;2023-02-15T05:20:49;1.10;99.90
3756;DHT22;1893;52.526;13.360;2023-02-15T05:23:15;1.00;99.90
3756;DHT22;1893;52.526;13.360;2023-02-15T05:25:45;1.00;99.90
3756;DHT22;1893;52.526;13.360;2023-02-15T05:28:30;0.90;99.90
3756;DHT22;1893;52.526;13.360;2023-02-15T05:31:10;1.00;99.90
3756;DHT22;1893;52.526;13.360;2023-02-15T05:33:36;0.90;99.90
3756;DHT22;1893;52.526;13.360;2023-02-15T05:36:03;0.90;99.90
3756;DHT22;1893;52.526;13.360;2023-02-15T05:38:29;0.80;99.90
3756;DHT22;1893;52.526;13.360;2023-02-15T05:40:55;0.80;99.90
3756;DHT22;1893;52.526;13.360;2023-02-15T05:43:21;0.80;99.90
3756;DHT22;1893;52.526;13.360;2023-02-15T05:45:51;0.70;99.90
3756;DHT22;1893;52.526;13.360;2023-02-15T05:48:17;0.70;99.90
3756;DHT22;1893;52.526;13.360;2023-02-15T05:50:43;0.70;99.90
3756;DHT22;1893;52.526;13.360;2023-02-15T05:53:09;0.70;99.90
3756;DHT22;1893;52.526;13.360;2023-02-15T05:55:40;0.70;99.90
3756;DHT22;1893;52.526;13.360;2023-02-15T05:58:07;0.60;99.90
3756;DHT22;1893;52.526;13.360;2023-02-15T06:00:33;0.60;99.90
3756;DHT22;1893;52.526;13.360;2023-02-15T06:02:59;0.60;99.90
3756;DHT22;1893;52.526;13.360;2023-02-15T06:05:25;0.60;99.90
3756;DHT22;1893;52.526;13.360;2023-02-15T06:07:50;0.60;99.90
3756;DHT22;1893;52.526;13.360;2023-02-15T06:10:16;0.50;99.90
3756;DHT22;1893;52.526;13.360;2023-02-15T06:12:44;0.50;99.90
3756;DHT22;1893;52.526;13.360;2023-02-15T06:15:09;0.40;99.90
3756;DHT22;1893;52.526;13.360;2023-02-15T06:17:35;0.40;99.90
3756;DHT22;1893;52.526;13.360;2023-02-15T06:20:00;0.40;99.90
3756;DHT22;1893;52.526;13.360;2023-02-15T06:22:26;0.40;99.90
3756;DHT22;1893;52.526;13.360;2023-02-15T06:24:52;0.50;99.90
3756;DHT22;1893;52.526;13.360;2023-02-15T06:27:17;0.50;99.90
3756;DHT22;1893;52.526;13.360;2023-02-15T06:29:43;0.50;99.90
3756;DHT22;1893;52.526;13.360;2023-02-15T06:32:08;0.50;99.90
3756;DHT22;1893;52.526;13.360;2023-02-15T06:34:34;0.50;99.90
3756;DHT22;1893;52.526;13.360;2023-02-15T06:37:00;0.60;99.90
3756;DHT22;1893;52.526;13.360;2023-02-15T06:39:25;0.40;99.90
3756;DHT22;1893;52.526;13.360;2023-02-15T06:41:51;0.40;99.90
3756;DHT22;1893;52.526;13.360;2023-02-15T06:44:17;0.50;99.90
3756;DHT22;1893;52.526;13.360;2023-02-15T06:46:42;0.40;99.90
3756;DHT22;1893;52.526;13.360;2023-02-15T06:49:08;0.50;99.90
3756;DHT22;1893;52.526;13.360;2023-02-15T06:51:33;0.50;99.90
3756;DHT22;1893;52.526;13.360;2023-02-15T06:53:59;0.70;99.90
3756;DHT22;1893;52.526;13.360;2023-02-15T06:56:25;0.60;99.90
3756;DHT22;1893;52.526;13.360;2023-02-15T06:58:51;0.60;99.90
3756;DHT22;1893;52.526;13.360;2023-02-15T07:01:18;0.60;99.90
3756;DHT22;1893;52.526;13.360;2023-02-15T07:03:44;0.60;99.90
3756;DHT22;1893;52.526;13.360;2023-02-15T07:06:10;0.60;99.90
3756;DHT22;1893;52.526;13.360;2023-02-15T07:08:36;0.60;99.90
3756;DHT22;1893;52.526;13.360;2023-02-15T07:11:04;0.60;99.90
3756;DHT22;1893;52.526;13.360;2023-02-15T07:13:49;0.70;99.90
3756;DHT22;1893;52.526;13.360;2023-02-15T07:16:14;0.50;99.90
3756;DHT22;1893;52.526;13.360;2023-02-15T07:18:40;0.40;99.90
3756;DHT22;1893;52.526;13.360;2023-02-15T07:21:06;0.40;99.90
3756;DHT22;1893;52.526;13.360;2023-02-15T07:23:36;0.40;99.90
3756;DHT22;1893;52.526;13.360;2023-02-15T07:26:02;0.50;99.90
3756;DHT22;1893;52.526;13.360;2023-02-15T07:28:29;0.40;99.90
3756;DHT22;1893;52.526;13.360;2023-02-15T07:30:54;0.40;99.90
3756;DHT22;1893;52.526;13.360;2023-02-15T07:33:20;0.40;99.90
3756;DHT22;1893;52.526;13.360;2023-02-15T07:35:54;0.40;99.90
3756;DHT22;1893;52.526;13.360;2023-02-15T07:38:20;0.50;99.90
3756;DHT22;1893;52.526;13.360;2023-02-15T07:40:46;0.60;99.90
3756;DHT22;1893;52.526;13.360;2023-02-15T07:43:13;0.60;99.90
3756;DHT22;1893;52.526;13.360;2023-02-15T07:45:40;0.60;99.90
3756;DHT22;1893;52.526;13.360;2023-02-15T07:48:06;0.60;99.90
3756;DHT22;1893;52.526;13.360;2023-02-15T07:50:32;0.50;99.90
3756;DHT22;1893;52.526;13.360;2023-02-15T07:52:58;0.50;99.90
3756;DHT22;1893;52.526;13.360;2023-02-15T07:55:26;0.40;99.90
3756;DHT22;1893;52.526;13.360;2023-02-15T07:57:51;0.50;99.90
3756;DHT22;1893;52.526;13.360;2023-02-15T08:00:20;0.50;99.90
3756;DHT22;1893;52.526;13.360;2023-02-15T08:02:51;0.40;99.90
3756;DHT22;1893;52.526;13.360;2023-02-15T08:05:37;0.60;99.90
3756;DHT22;1893;52.526;13.360;2023-02-15T08:08:03;0.30;99.90
3756;DHT22;1893;52.526;13.360;2023-02-15T08:10:29;0.30;99.90
3756;DHT22;1893;52.526;13.360;2023-02-15T08:13:13;0.20;99.90
3756;DHT22;1893;52.526;13.360;2023-02-15T08:15:39;0.30;99.90
3756;DHT22;1893;52.526;13.360;2023-02-15T08:18:04;0.20;99.90
3756;DHT22;1893;52.526;13.360;2023-02-15T08:20:30;0.30;99.90
3756;DHT22;1893;52.526;13.360;2023-02-15T08:22:56;0.40;99.90
3756;DHT22;1893;52.526;13.360;2023-02-15T08:25:21;0.50;99.90
3756;DHT22;1893;52.526;13.360;2023-02-15T08:27:47;0.50;99.90
3756;DHT22;1893;52.526;13.360;2023-02-15T08:30:13;0.50;99.90
3756;DHT22;1893;52.526;13.360;2023-02-15T08:32:39;0.70;99.90
3756;DHT22;1893;52.526;13.360;2023-02-15T08:35:05;0.70;99.90
3756;DHT22;1893;52.526;13.360;2023-02-15T08:37:31;0.70;99.90
3756;DHT22;1893;52.526;13.360;2023-02-15T08:39:56;0.70;99.90
3756;DHT22;1893;52.526;13.360;2023-02-15T08:42:22;1.00;99.90
3756;DHT22;1893;52.526;13.360;2023-02-15T08:44:47;1.20;99.90
3756;DHT22;1893;52.526;13.360;2023-02-15T08:47:15;1.10;99.90
3756;DHT22;1893;52.526;13.360;2023-02-15T08:49:41;1.20;99.90
3756;DHT22;1893;52.526;13.360;2023-02-15T08:52:07;1.10;99.90
3756;DHT22;1893;52.526;13.360;2023-02-15T08:54:33;1.20;99.90
3756;DHT22;1893;52.526;13.360;2023-02-15T08:56:59;1.20;99.90
3756;DHT22;1893;52.526;13.360;2023-02-15T08:59:25;1.40;99.90
3756;DHT22;1893;52.526;13.360;2023-02-15T09:01:52;1.30;99.90
3756;DHT22;1893;52.526;13.360;2023-02-15T09:04:18;1.30;99.90
3756;DHT22;1893;52.526;13.360;2023-02-15T09:06:45;1.40;99.90
3756;DHT22;1893;52.526;13.360;2023-02-15T09:09:11;1.30;99.90
3756;DHT22;1893;52.526;13.360;2023-02-15T09:11:42;1.20;99.90
3756;DHT22;1893;52.526;13.360;2023-02-15T09:14:11;1.10;99.90
3756;DHT22;1893;52.526;13.360;2023-02-15T09:16:40;1.10;99.90
3756;DHT22;1893;52.526;13.360;2023-02-15T09:19:07;1.20;99.90
3756;DHT22;1893;52.526;13.360;2023-02-15T09:21:35;1.20;99.90
3756;DHT22;1893;52.526;13.360;2023-02-15T09:24:04;1.10;99.90
3756;DHT22;1893;52.526;13.360;2023-02-15T09:26:31;1.30;99.90
3756;DHT22;1893;52.526;13.360;2023-02-15T09:28:59;1.30;99.90
3756;DHT22;1893;52.526;13.360;2023-02-15T09:31:28;1.50;99.90
3756;DHT22;1893;52.526;13.360;2023-02-15T09:33:55;1.50;99.90
3756;DHT22;1893;52.526;13.360;2023-02-15T09:36:23;1.70;99.90
3756;DHT22;1893;52.526;13.360;2023-02-15T09:38:57;1.90;99.90
3756;DHT22;1893;52.526;13.360;2023-02-15T10:06:17;2.60;99.90
3756;DHT22;1893;52.526;13.360;2023-02-15T10:11:18;3.00;99.90
3756;DHT22;1893;52.526;13.360;2023-02-15T10:16:53;3.40;99.90
3756;DHT22;1893;52.526;13.360;2023-02-15T10:27:12;5.30;99.90
3756;DHT22;1893;52.526;13.360;2023-02-15T10:30:02;5.30;99.90
3756;DHT22;1893;52.526;13.360;2023-02-15T10:32:39;5.40;99.90
3756;DHT22;1893;52.526;13.360;2023-02-15T10:41:00;7.00;99.90
3756;DHT22;1893;52.526;13.360;2023-02-15T10:44:05;7.30;99.90
3756;DHT22;1893;52.526;13.360;2023-02-15T10:46:58;8.30;99.90
3756;DHT22;1893;52.526;13.360;2023-02-15T11:00:39;11.30;99.90
3756;DHT22;1893;52.526;13.360;2023-02-15T11:08:32;11.50;99.90
3756;DHT22;1893;52.526;13.360;2023-02-15T11:11:02;11.70;99.90
3756;DHT22;1893;52.526;13.360;2023-02-15T11:13:34;12.00;99.90
3756;DHT22;1893;52.526;13.360;2023-02-15T11:16:05;12.60;99.90
3756;DHT22;1893;52.526;13.360;2023-02-15T11:18:37;13.00;99.90
3756;DHT22;1893;52.526;13.360;2023-02-15T11:21:11;13.10;99.90
3756;DHT22;1893;52.526;13.360;2023-02-15T11:23:44;13.70;99.90
3756;DHT22;1893;52.526;13.360;2023-02-15T11:26:31;13.50;99.90
3756;DHT22;1893;52.526;13.360;2023-02-15T11:29:06;13.70;99.90
3756;DHT22;1893;52.526;13.360;2023-02-15T11:31:51;13.80;99.90
3756;DHT22;1893;52.526;13.360;2023-02-15T11:34:50;13.80;99.90
3756;DHT22;1893;52.526;13.360;2023-02-15T11:37:21;14.30;99.90
3756;DHT22;1893;52.526;13.360;2023-02-15T11:39:51;14.60;99.90
3756;DHT22;1893;52.526;13.360;2023-02-15T11:42:21;14.60;99.90
3756;DHT22;1893;52.526;13.360;2023-02-15T11:45:39;15.00;99.90
3756;DHT22;1893;52.526;13.360;2023-02-15T11:47:46;14.80;99.90
3756;DHT22;1893;52.526;13.360;2023-02-15T11:50:15;14.60;99.90
3756;DHT22;1893;52.526;13.360;2023-02-15T11:52:42;14.60;99.90
3756;DHT22;1893;52.526;13.360;2023-02-15T11:55:13;14.80;99.90
3756;DHT22;1893;52.526;13.360;2023-02-15T11:57:43;15.50;99.90
3756;DHT22;1893;52.526;13.360;2023-02-15T12:00:18;15.40;99.90
3756;DHT22;1893;52.526;13.360;2023-02-15T12:03:16;15.30;99.90
3756;DHT22;1893;52.526;13.360;2023-02-15T12:05:46;15.20;99.90
3756;DHT22;1893;52.526;13.360;2023-02-15T12:08:20;14.90;99.90
3756;DHT22;1893;52.526;13.360;2023-02-15T12:11:06;15.00;99.90
3756;DHT22;1893;52.526;13.360;2023-02-15T12:13:33;15.40;99.90
3756;DHT22;1893;52.526;13.360;2023-02-15T12:16:05;15.70;99.90
3756;DHT22;1893;52.526;13.360;2023-02-15T12:21:16;16.00;99.90
3756;DHT22;1893;52.526;13.360;2023-02-15T12:23:52;16.10;99.90
3756;DHT22;1893;52.526;13.360;2023-02-15T12:26:34;16.20;99.90
3756;DHT22;1893;52.526;13.360;2023-02-15T12:29:16;16.20;99.90
3756;DHT22;1893;52.526;13.360;2023-02-15T12:31:49;15.80;99.90
3756;DHT22;1893;52.526;13.360;2023-02-15T12:34:31;16.40;99.90
3756;DHT22;1893;52.526;13.360;2023-02-15T12:37:02;16.40;99.90
3756;DHT22;1893;52.526;13.360;2023-02-15T12:39:33;16.00;99.90
3756;DHT22;1893;52.526;13.360;2023-02-15T12:42:15;16.30;99.90
3756;DHT22;1893;52.526;13.360;2023-02-15T12:44:58;16.80;99.90
3756;DHT22;1893;52.526;13.360;2023-02-15T12:47:24;17.10;99.90
3756;DHT22;1893;52.526;13.360;2023-02-15T12:50:12;17.10;99.90
3756;DHT22;1893;52.526;13.360;2023-02-15T12:52:43;17.10;99.90
3756;DHT22;1893;52.526;13.360;2023-02-15T12:55:27;16.70;99.90
3756;DHT22;1893;52.526;13.360;2023-02-15T12:58:24;16.40;99.90
3756;DHT22;1893;52.526;13.360;2023-02-15T13:03:35;15.80;99.90
3756;DHT22;1893;52.526;13.360;2023-02-15T13:06:03;15.50;99.90
3756;DHT22;1893;52.526;13.360;2023-02-15T13:08:35;15.80;99.90
3756;DHT22;1893;52.526;13.360;2023-02-15T13:11:12;16.20;99.90
3756;DHT22;1893;52.526;13.360;2023-02-15T13:13:53;17.20;99.90
3756;DHT22;1893;52.526;13.360;2023-02-15T13:18:57;17.30;99.90
3756;DHT22;1893;52.526;13.360;2023-02-15T13:21:26;16.70;99.90
3756;DHT22;1893;52.526;13.360;2023-02-15T13:24:15;15.90;99.90
3756;DHT22;1893;52.526;13.360;2023-02-15T13:26:43;15.90;99.90
3756;DHT22;1893;52.526;13.360;2023-02-15T13:29:36;15.30;99.90
3756;DHT22;1893;52.526;13.360;2023-02-15T13:32:14;15.10;99.90
3756;DHT22;1893;52.526;13.360;2023-02-15T13:34:43;15.40;99.90
3756;DHT22;1893;52.526;13.360;2023-02-15T13:37:19;15.50;99.90
3756;DHT22;1893;52.526;13.360;2023-02-15T13:40:18;16.20;99.90
3756;DHT22;1893;52.526;13.360;2023-02-15T13:42:49;16.30;99.90
3756;DHT22;1893;52.526;13.360;2023-02-15T13:48:35;15.50;99.90
3756;DHT22;1893;52.526;13.360;2023-02-15T13:59:34;16.10;99.90
3756;DHT22;1893;52.526;13.360;2023-02-15T14:07:52;14.00;99.90
3756;DHT22;1893;52.526;13.360;2023-02-15T14:15:53;13.00;99.90
3756;DHT22;1893;52.526;13.360;2023-02-15T14:21:36;12.50;99.90
3756;DHT22;1893;52.526;13.360;2023-02-15T14:29:33;11.70;99.90
3756;DHT22;1893;52.526;13.360;2023-02-15T14:35:01;11.30;99.90
3756;DHT22;1893;52.526;13.360;2023-02-15T14:37:52;11.20;99.90
3756;DHT22;1893;52.526;13.360;2023-02-15T14:43:19;10.70;99.90
3756;DHT22;1893;52.526;13.360;2023-02-15T14:48:50;10.60;99.90
3756;DHT22;1893;52.526;13.360;2023-02-15T14:55:02;10.40;99.90
3756;DHT22;1893;52.526;13.360;2023-02-15T15:07:46;10.10;99.90
3756;DHT22;1893;52.526;13.360;2023-02-15T15:12:57;10.20;99.90
3756;DHT22;1893;52.526;13.360;2023-02-15T15:18:01;10.00;99.90
3756;DHT22;1893;52.526;13.360;2023-02-15T15:20:43;10.00;99.90
3756;DHT22;1893;52.526;13.360;2023-02-15T15:25:52;9.90;99.90
3756;DHT22;1893;52.526;13.360;2023-02-15T15:31:18;9.80;99.90
3756;DHT22;1893;52.526;13.360;2023-02-15T15:39:52;9.80;99.90
3756;DHT22;1893;52.526;13.360;2023-02-15T15:43:01;9.70;99.90
3756;DHT22;1893;52.526;13.360;2023-02-15T15:45:57;9.60;99.90
3756;DHT22;1893;52.526;13.360;2023-02-15T15:51:25;9.40;99.90
3756;DHT22;1893;52.526;13.360;2023-02-15T15:53:53;9.40;99.90
3756;DHT22;1893;52.526;13.360;2023-02-15T15:56:23;9.40;99.90
3756;DHT22;1893;52.526;13.360;2023-02-15T15:59:00;9.40;99.90
3756;DHT22;1893;52.526;13.360;2023-02-15T16:01:34;9.40;99.90
3756;DHT22;1893;52.526;13.360;2023-02-15T16:04:01;9.20;99.90
3756;DHT22;1893;52.526;13.360;2023-02-15T16:06:38;9.10;99.90
3756;DHT22;1893;52.526;13.360;2023-02-15T16:09:25;9.10;99.90
3756;DHT22;1893;52.526;13.360;2023-02-15T16:11:54;9.10;99.90
3756;DHT22;1893;52.526;13.360;2023-02-15T16:14:37;9.00;99.90
3756;DHT22;1893;52.526;13.360;2023-02-15T16:17:12;8.80;99.90
3756;DHT22;1893;52.526;13.360;2023-02-15T16:19:41;8.80;99.90
3756;DHT22;1893;52.526;13.360;2023-02-15T16:22:15;8.70;99.90
3756;DHT22;1893;52.526;13.360;2023-02-15T16:25:08;8.80;99.90
3756;DHT22;1893;52.526;13.360;2023-02-15T16:27:43;8.60;99.90
3756;DHT22;1893;52.526;13.360;2023-02-15T16:33:04;8.40;99.90
3756;DHT22;1893;52.526;13.360;2023-02-15T16:35:31;8.40;99.90
3756;DHT22;1893;52.526;13.360;2023-02-15T16:37:57;8.30;99.90
3756;DHT22;1893;52.526;13.360;2023-02-15T16:42:49;7.90;99.90
3756;DHT22;1893;52.526;13.360;2023-02-15T16:45:19;7.80;99.90
3756;DHT22;1893;52.526;13.360;2023-02-15T16:47:50;7.60;99.90
3756;DHT22;1893;52.526;13.360;2023-02-15T16:50:31;7.50;99.90
3756;DHT22;1893;52.526;13.360;2023-02-15T16:52:57;7.40;99.90
3756;DHT22;1893;52.526;13.360;2023-02-15T16:55:38;7.30;99.90
3756;DHT22;1893;52.526;13.360;2023-02-15T16:58:06;7.20;99.90
3756;DHT22;1893;52.526;13.360;2023-02-15T17:00:35;7.10;99.90
3756;DHT22;1893;52.526;13.360;2023-02-15T17:13:27;6.70;99.90
3756;DHT22;1893;52.526;13.360;2023-02-15T17:16:23;6.60;99.90
3756;DHT22;1893;52.526;13.360;2023-02-15T17:18:49;6.60;99.90
3756;DHT22;1893;52.526;13.360;2023-02-15T17:21:19;6.50;99.90
3756;DHT22;1893;52.526;13.360;2023-02-15T17:23:50;6.60;99.90
3756;DHT22;1893;52.526;13.360;2023-02-15T17:26:22;6.60;99.90
3756;DHT22;1893;52.526;13.360;2023-02-15T17:28:51;6.60;99.90
3756;DHT22;1893;52.526;13.360;2023-02-15T17:31:18;6.60;99.90
3756;DHT22;1893;52.526;13.360;2023-02-15T17:33:45;6.70;99.90
3756;DHT22;1893;52.526;13.360;2023-02-15T17:36:19;6.70;99.90
3756;DHT22;1893;52.526;13.360;2023-02-15T17:41:29;6.50;99.90
3756;DHT22;1893;52.526;13.360;2023-02-15T17:43:55;6.40;99.90
3756;DHT22;1893;52.526;13.360;2023-02-15T17:46:21;6.40;99.90
3756;DHT22;1893;52.526;13.360;2023-02-15T17:48:52;6.50;99.90
3756;DHT22;1893;52.526;13.360;2023-02-15T17:51:19;6.40;99.90
3756;DHT22;1893;52.526;13.360;2023-02-15T17:53:46;6.30;99.90
3756;DHT22;1893;52.526;13.360;2023-02-15T17:56:34;6.20;99.90
3756;DHT22;1893;52.526;13.360;2023-02-15T17:59:00;6.20;99.90
3756;DHT22;1893;52.526;13.360;2023-02-15T18:01:26;6.20;99.90
3756;DHT22;1893;52.526;13.360;2023-02-15T18:04:13;6.10;99.90
3756;DHT22;1893;52.526;13.360;2023-02-15T18:06:57;6.00;99.90
3756;DHT22;1893;52.526;13.360;2023-02-15T18:09:42;5.90;99.90
3756;DHT22;1893;52.526;13.360;2023-02-15T18:12:32;5.80;99.90
3756;DHT22;1893;52.526;13.360;2023-02-15T18:14:58;5.60;99.90
3756;DHT22;1893;52.526;13.360;2023-02-15T18:17:37;5.70;99.90
3756;DHT22;1893;52.526;13.360;2023-02-15T18:20:09;5.70;99.90
3756;DHT22;1893;52.526;13.360;2023-02-15T18:22:40;5.60;99.90
3756;DHT22;1893;52.526;13.360;2023-02-15T18:25:15;5.60;99.90
3756;DHT22;1893;52.526;13.360;2023-02-15T18:27:41;5.60;99.90
3756;DHT22;1893;52.526;13.360;2023-02-15T18:30:07;5.70;99.90
3756;DHT22;1893;52.526;13.360;2023-02-15T18:32:38;5.60;99.90
3756;DHT22;1893;52.526;13.360;2023-02-15T18:35:05;5.70;99.90
3756;DHT22;1893;52.526;13.360;2023-02-15T18:37:32;5.80;99.90
3756;DHT22;1893;52.526;13.360;2023-02-15T18:39:58;5.70;99.90
3756;DHT22;1893;52.526;13.360;2023-02-15T18:42:27;5.70;99.90
3756;DHT22;1893;52.526;13.360;2023-02-15T18:44:55;5.50;99.90
3756;DHT22;1893;52.526;13.360;2023-02-15T18:47:22;5.60;99.90
3756;DHT22;1893;52.526;13.360;2023-02-15T18:49:47;5.50;99.90
3756;DHT22;1893;52.526;13.360;2023-02-15T18:52:18;5.40;99.90
3756;DHT22;1893;52.526;13.360;2023-02-15T18:54:45;5.30;99.90
3756;DHT22;1893;52.526;13.360;2023-02-15T18:57:15;5.10;99.90
3756;DHT22;1893;52.526;13.360;2023-02-15T18:59:41;5.20;99.90
3756;DHT22;1893;52.526;13.360;2023-02-15T19:02:15;5.00;99.90
3756;DHT22;1893;52.526;13.360;2023-02-15T19:04:42;4.90;99.90
3756;DHT22;1893;52.526;13.360;2023-02-15T19:07:23;4.90;99.90
3756;DHT22;1893;52.526;13.360;2023-02-15T19:09:56;4.90;99.90
3756;DHT22;1893;52.526;13.360;2023-02-15T19:12:23;4.90;99.90
3756;DHT22;1893;52.526;13.360;2023-02-15T19:14:48;4.90;99.90
3756;DHT22;1893;52.526;13.360;2023-02-15T19:17:19;4.80;99.90
3756;DHT22;1893;52.526;13.360;2023-02-15T19:19:45;4.80;99.90
3756;DHT22;1893;52.526;13.360;2023-02-15T19:24:40;4.70;99.90
3756;DHT22;1893;52.526;13.360;2023-02-15T19:29:42;4.60;99.90
3756;DHT22;1893;52.526;13.360;2023-02-15T19:32:10;4.50;99.90
3756;DHT22;1893;52.526;13.360;2023-02-15T19:34:35;4.50;99.90
3756;DHT22;1893;52.526;13.360;2023-02-15T19:37:01;4.40;99.90